sensor_id;sensor_type;location;lat;lon;timestamp;temperature;humidity
27795;DHT22;15176;50.844;4.412;2022-08-21T00:00:40;21.80;97.70
27795;DHT22;15176;50.844;4.412;2022-08-21T00:03:08;21.70;97.40
27795;DHT22;15176;50.844;4.412;2022-08-21T00:05:37;21.70;97.50
27795;DHT22;15176;50.844;4.412;2022-08-21T00:08:04;21.50;97.60
27795;DHT22;15176;50.844;4.412;2022-08-21T00:10:30;21.30;97.90
27795;DHT22;15176;50.844;4.412;2022-08-21T00:12:56;21.20;98.50
27795;DHT22;15176;50.844;4.412;2022-08-21T00:15:29;21.10;99.40
27795;DHT22;15176;50.844;4.412;2022-08-21T00:17:55;21.00;99.90
27795;DHT22;15176;50.844;4.412;2022-08-21T00:20:23;21.00;99.90
27795;DHT22;15176;50.844;4.412;2022-08-21T00:22:49;21.10;99.90
27795;DHT22;15176;50.844;4.412;2022-08-21T00:25:16;21.00;99.90
27795;DHT22;15176;50.844;4.412;2022-08-21T00:27:42;21.10;99.90
27795;DHT22;15176;50.844;4.412;2022-08-21T00:30:09;21.00;99.90
27795;DHT22;15176;50.844;4.412;2022-08-21T00:32:37;21.00;99.90
27795;DHT22;15176;50.844;4.412;2022-08-21T00:35:04;21.00;99.90
27795;DHT22;15176;50.844;4.412;2022-08-21T00:37:29;21.00;99.90
27795;DHT22;15176;50.844;4.412;2022-08-21T00:39:55;20.80;99.90
27795;DHT22;15176;50.844;4.412;2022-08-21T00:42:21;20.80;99.90
27795;DHT22;15176;50.844;4.412;2022-08-21T00:44:48;20.50;99.90
27795;DHT22;15176;50.844;4.412;2022-08-21T00:47:16;20.30;99.90
27795;DHT22;15176;50.844;4.412;2022-08-21T00:49:42;20.60;99.90
27795;DHT22;15176;50.844;4.412;2022-08-21T00:52:12;20.60;99.90
27795;DHT22;15176;50.844;4.412;2022-08-21T00:54:40;20.70;99.90
27795;DHT22;15176;50.844;4.412;2022-08-21T00:57:16;20.80;99.90
27795;DHT22;15176;50.844;4.412;2022-08-21T00:59:46;20.80;99.90
27795;DHT22;15176;50.844;4.412;2022-08-21T01:02:15;20.50;99.90
27795;DHT22;15176;50.844;4.412;2022-08-21T01:04:41;20.70;99.90
27795;DHT22;15176;50.844;4.412;2022-08-21T01:07:06;20.50;99.90
27795;DHT22;15176;50.844;4.412;2022-08-21T01:09:32;20.60;99.90
27795;DHT22;15176;50.844;4.412;2022-08-21T01:11:58;20.90;99.90
27795;DHT22;15176;50.844;4.412;2022-08-21T01:14:24;20.90;99.90
27795;DHT22;15176;50.844;4.412;2022-08-21T01:16:51;20.60;99.90
27795;DHT22;15176;50.844;4.412;2022-08-21T01:19:20;20.40;99.90
27795;DHT22;15176;50.844;4.412;2022-08-21T01:21:46;20.70;99.90
27795;DHT22;15176;50.844;4.412;2022-08-21T01:24:12;21.00;99.90
27795;DHT22;15176;50.844;4.412;2022-08-21T01:26:39;21.00;99.90
27795;DHT22;15176;50.844;4.412;2022-08-21T01:29:34;20.90;99.90
27795;DHT22;15176;50.844;4.412;2022-08-21T01:32:06;21.00;99.90
27795;DHT22;15176;50.844;4.412;2022-08-21T01:34:34;21.10;99.90
27795;DHT22;15176;50.844;4.412;2022-08-21T01:37:02;21.00;99.90
27795;DHT22;15176;50.844;4.412;2022-08-21T01:39:28;20.90;99.90
27795;DHT22;15176;50.844;4.412;2022-08-21T01:41:54;20.70;99.90
27795;DHT22;15176;50.844;4.412;2022-08-21T01:44:23;20.70;99.90
27795;DHT22;15176;50.844;4.412;2022-08-21T01:46:50;20.50;99.90
27795;DHT22;15176;50.844;4.412;2022-08-21T01:49:16;20.80;99.90
27795;DHT22;15176;50.844;4.412;2022-08-21T01:51:42;20.70;99.90
27795;DHT22;15176;50.844;4.412;2022-08-21T01:54:08;20.60;99.90
27795;DHT22;15176;50.844;4.412;2022-08-21T01:56:42;20.70;99.90
27795;DHT22;15176;50.844;4.412;2022-08-21T01:59:09;20.60;99.90
27795;DHT22;15176;50.844;4.412;2022-08-21T02:01:35;20.60;99.90
27795;DHT22;15176;50.844;4.412;2022-08-21T02:04:01;20.60;99.90
27795;DHT22;15176;50.844;4.412;2022-08-21T02:06:27;20.80;99.90
27795;DHT22;15176;50.844;4.412;2022-08-21T02:08:53;20.70;99.90
27795;DHT22;15176;50.844;4.412;2022-08-21T02:11:19;20.80;99.90
27795;DHT22;15176;50.844;4.412;2022-08-21T02:13:45;21.00;99.90
27795;DHT22;15176;50.844;4.412;2022-08-21T02:16:11;21.00;99.90
27795;DHT22;15176;50.844;4.412;2022-08-21T02:18:37;20.80;99.90
27795;DHT22;15176;50.844;4.412;2022-08-21T02:21:05;20.90;99.90
27795;DHT22;15176;50.844;4.412;2022-08-21T02:23:31;21.00;99.90
27795;DHT22;15176;50.844;4.412;2022-08-21T02:26:00;21.10;99.90
27795;DHT22;15176;50.844;4.412;2022-08-21T02:28:26;20.70;99.90
27795;DHT22;15176;50.844;4.412;2022-08-21T02:30:52;21.00;99.90
27795;DHT22;15176;50.844;4.412;2022-08-21T02:33:18;21.20;99.90
27795;DHT22;15176;50.844;4.412;2022-08-21T02:35:45;21.20;99.90
27795;DHT22;15176;50.844;4.412;2022-08-21T02:38:16;21.40;99.90
27795;DHT22;15176;50.844;4.412;2022-08-21T02:40:44;21.60;99.90
27795;DHT22;15176;50.844;4.412;2022-08-21T02:43:11;21.80;99.90
27795;DHT22;15176;50.844;4.412;2022-08-21T02:45:37;21.60;99.90
27795;DHT22;15176;50.844;4.412;2022-08-21T02:48:09;21.60;99.90
27795;DHT22;15176;50.844;4.412;2022-08-21T02:50:40;21.60;99.90
27795;DHT22;15176;50.844;4.412;2022-08-21T02:53:07;21.50;99.90
27795;DHT22;15176;50.844;4.412;2022-08-21T02:55:35;21.50;99.90
27795;DHT22;15176;50.844;4.412;2022-08-21T02:58:02;21.40;99.90
27795;DHT22;15176;50.844;4.412;2022-08-21T03:00:30;21.20;99.90
27795;DHT22;15176;50.844;4.412;2022-08-21T03:02:58;21.20;99.90
27795;DHT22;15176;50.844;4.412;2022-08-21T03:05:25;21.20;99.90
27795;DHT22;15176;50.844;4.412;2022-08-21T03:07:51;20.90;99.90
27795;DHT22;15176;50.844;4.412;2022-08-21T03:10:19;20.80;99.90
27795;DHT22;15176;50.844;4.412;2022-08-21T03:12:45;20.40;99.90
27795;DHT22;15176;50.844;4.412;2022-08-21T03:15:15;20.60;99.90
27795;DHT22;15176;50.844;4.412;2022-08-21T03:17:41;20.80;99.90
27795;DHT22;15176;50.844;4.412;2022-08-21T03:20:08;20.60;99.90
27795;DHT22;15176;50.844;4.412;2022-08-21T03:22:34;20.30;99.90
27795;DHT22;15176;50.844;4.412;2022-08-21T03:25:00;20.50;99.90
27795;DHT22;15176;50.844;4.412;2022-08-21T03:27:27;20.80;99.90
27795;DHT22;15176;50.844;4.412;2022-08-21T03:29:54;20.70;99.90
27795;DHT22;15176;50.844;4.412;2022-08-21T03:32:20;20.30;99.90
27795;DHT22;15176;50.844;4.412;2022-08-21T03:34:46;20.30;99.90
27795;DHT22;15176;50.844;4.412;2022-08-21T03:37:13;20.30;99.90
27795;DHT22;15176;50.844;4.412;2022-08-21T03:39:40;20.60;99.90
27795;DHT22;15176;50.844;4.412;2022-08-21T03:42:07;20.90;99.90
27795;DHT22;15176;50.844;4.412;2022-08-21T03:44:33;20.90;99.90
27795;DHT22;15176;50.844;4.412;2022-08-21T03:47:00;20.80;99.90
27795;DHT22;15176;50.844;4.412;2022-08-21T03:49:25;20.50;99.90
27795;DHT22;15176;50.844;4.412;2022-08-21T03:51:51;20.70;99.90
27795;DHT22;15176;50.844;4.412;2022-08-21T03:54:17;20.80;99.90
27795;DHT22;15176;50.844;4.412;2022-08-21T03:56:43;20.50;99.90
27795;DHT22;15176;50.844;4.412;2022-08-21T03:59:09;20.60;99.90
27795;DHT22;15176;50.844;4.412;2022-08-21T04:01:35;20.60;99.90
27795;DHT22;15176;50.844;4.412;2022-08-21T04:04:01;20.60;99.90
27795;DHT22;15176;50.844;4.412;2022-08-21T04:06:27;20.70;99.90
27795;DHT22;15176;50.844;4.412;2022-08-21T04:08:53;20.70;99.90
27795;DHT22;15176;50.844;4.412;2022-08-21T04:11:19;20.60;99.90
27795;DHT22;15176;50.844;4.412;2022-08-21T04:13:45;20.80;99.90
27795;DHT22;15176;50.844;4.412;2022-08-21T04:16:11;20.50;99.90
27795;DHT22;15176;50.844;4.412;2022-08-21T04:18:37;20.50;99.90
27795;DHT22;15176;50.844;4.412;2022-08-21T04:21:03;20.60;99.90
27795;DHT22;15176;50.844;4.412;2022-08-21T04:23:29;20.60;99.90
27795;DHT22;15176;50.844;4.412;2022-08-21T04:25:56;20.40;99.90
27795;DHT22;15176;50.844;4.412;2022-08-21T04:28:23;20.50;99.90
27795;DHT22;15176;50.844;4.412;2022-08-21T04:30:50;20.30;99.90
27795;DHT22;15176;50.844;4.412;2022-08-21T04:33:17;20.20;99.90
27795;DHT22;15176;50.844;4.412;2022-08-21T04:35:43;20.40;99.90
27795;DHT22;15176;50.844;4.412;2022-08-21T04:38:09;20.30;99.90
27795;DHT22;15176;50.844;4.412;2022-08-21T04:40:35;20.30;99.90
27795;DHT22;15176;50.844;4.412;2022-08-21T04:43:04;20.30;99.90
27795;DHT22;15176;50.844;4.412;2022-08-21T04:45:34;20.00;99.90
27795;DHT22;15176;50.844;4.412;2022-08-21T04:48:01;20.30;99.90
27795;DHT22;15176;50.844;4.412;2022-08-21T04:50:36;20.60;99.90
27795;DHT22;15176;50.844;4.412;2022-08-21T04:53:10;20.70;99.90
27795;DHT22;15176;50.844;4.412;2022-08-21T04:55:37;20.60;99.90
27795;DHT22;15176;50.844;4.412;2022-08-21T04:58:08;20.30;99.90
27795;DHT22;15176;50.844;4.412;2022-08-21T05:00:34;20.30;99.90
27795;DHT22;15176;50.844;4.412;2022-08-21T05:03:00;20.50;99.90
27795;DHT22;15176;50.844;4.412;2022-08-21T05:05:28;20.70;99.90
27795;DHT22;15176;50.844;4.412;2022-08-21T05:07:57;20.50;99.90
27795;DHT22;15176;50.844;4.412;2022-08-21T05:10:24;20.60;99.90
27795;DHT22;15176;50.844;4.412;2022-08-21T05:12:51;20.60;99.90
27795;DHT22;15176;50.844;4.412;2022-08-21T05:15:16;20.30;99.90
27795;DHT22;15176;50.844;4.412;2022-08-21T05:17:42;20.30;99.90
27795;DHT22;15176;50.844;4.412;2022-08-21T05:20:10;20.40;99.90
27795;DHT22;15176;50.844;4.412;2022-08-21T05:22:36;20.00;99.90
27795;DHT22;15176;50.844;4.412;2022-08-21T05:25:02;20.40;99.90
27795;DHT22;15176;50.844;4.412;2022-08-21T05:27:27;20.10;99.90
27795;DHT22;15176;50.844;4.412;2022-08-21T05:29:56;20.00;99.90
27795;DHT22;15176;50.844;4.412;2022-08-21T05:32:21;20.10;99.90
27795;DHT22;15176;50.844;4.412;2022-08-21T05:34:47;19.80;99.90
27795;DHT22;15176;50.844;4.412;2022-08-21T05:37:13;19.70;99.90
27795;DHT22;15176;50.844;4.412;2022-08-21T05:39:39;19.90;99.90
27795;DHT22;15176;50.844;4.412;2022-08-21T05:42:05;20.00;99.90
27795;DHT22;15176;50.844;4.412;2022-08-21T05:44:31;20.00;99.90
27795;DHT22;15176;50.844;4.412;2022-08-21T05:47:08;19.90;99.90
27795;DHT22;15176;50.844;4.412;2022-08-21T05:49:34;20.20;99.90
27795;DHT22;15176;50.844;4.412;2022-08-21T05:52:01;19.90;99.90
27795;DHT22;15176;50.844;4.412;2022-08-21T05:54:27;19.70;99.90
27795;DHT22;15176;50.844;4.412;2022-08-21T05:56:53;19.70;99.90
27795;DHT22;15176;50.844;4.412;2022-08-21T05:59:19;19.40;99.90
27795;DHT22;15176;50.844;4.412;2022-08-21T06:01:45;19.40;99.90
27795;DHT22;15176;50.844;4.412;2022-08-21T06:04:11;19.70;99.90
27795;DHT22;15176;50.844;4.412;2022-08-21T06:06:37;20.10;99.90
27795;DHT22;15176;50.844;4.412;2022-08-21T06:09:04;19.70;99.90
27795;DHT22;15176;50.844;4.412;2022-08-21T06:11:30;19.70;99.90
27795;DHT22;15176;50.844;4.412;2022-08-21T06:13:56;19.90;99.90
27795;DHT22;15176;50.844;4.412;2022-08-21T06:16:22;19.80;99.90
27795;DHT22;15176;50.844;4.412;2022-08-21T06:18:49;19.90;99.90
27795;DHT22;15176;50.844;4.412;2022-08-21T06:21:15;19.60;99.90
27795;DHT22;15176;50.844;4.412;2022-08-21T06:23:41;19.50;99.90
27795;DHT22;15176;50.844;4.412;2022-08-21T06:26:08;19.50;99.90
27795;DHT22;15176;50.844;4.412;2022-08-21T06:28:35;19.50;99.90
27795;DHT22;15176;50.844;4.412;2022-08-21T06:31:14;19.40;99.90
27795;DHT22;15176;50.844;4.412;2022-08-21T06:33:40;19.40;99.90
27795;DHT22;15176;50.844;4.412;2022-08-21T06:36:05;19.60;99.90
27795;DHT22;15176;50.844;4.412;2022-08-21T06:38:31;19.50;99.90
27795;DHT22;15176;50.844;4.412;2022-08-21T06:40:57;19.70;99.90
27795;DHT22;15176;50.844;4.412;2022-08-21T06:43:22;19.90;99.90
27795;DHT22;15176;50.844;4.412;2022-08-21T06:45:48;19.90;99.90
27795;DHT22;15176;50.844;4.412;2022-08-21T06:48:14;20.20;99.90
27795;DHT22;15176;50.844;4.412;2022-08-21T06:50:40;20.60;99.90
27795;DHT22;15176;50.844;4.412;2022-08-21T06:53:08;20.70;99.90
27795;DHT22;15176;50.844;4.412;2022-08-21T06:55:35;20.60;99.90
27795;DHT22;15176;50.844;4.412;2022-08-21T06:58:00;20.80;99.90
27795;DHT22;15176;50.844;4.412;2022-08-21T07:00:27;21.00;99.90
27795;DHT22;15176;50.844;4.412;2022-08-21T07:02:52;21.30;99.90
27795;DHT22;15176;50.844;4.412;2022-08-21T07:05:18;21.40;99.90
27795;DHT22;15176;50.844;4.412;2022-08-21T07:07:44;21.70;99.90
27795;DHT22;15176;50.844;4.412;2022-08-21T07:10:10;21.70;99.90
27795;DHT22;15176;50.844;4.412;2022-08-21T07:12:36;21.80;99.90
27795;DHT22;15176;50.844;4.412;2022-08-21T07:15:04;21.90;99.90
27795;DHT22;15176;50.844;4.412;2022-08-21T07:17:29;21.80;99.90
27795;DHT22;15176;50.844;4.412;2022-08-21T07:19:55;21.90;99.90
27795;DHT22;15176;50.844;4.412;2022-08-21T07:22:22;22.10;99.90
27795;DHT22;15176;50.844;4.412;2022-08-21T07:24:49;22.20;99.90
27795;DHT22;15176;50.844;4.412;2022-08-21T07:27:15;22.40;99.90
27795;DHT22;15176;50.844;4.412;2022-08-21T07:29:41;22.60;99.90
27795;DHT22;15176;50.844;4.412;2022-08-21T07:32:07;23.10;99.90
27795;DHT22;15176;50.844;4.412;2022-08-21T07:34:32;23.10;99.90
27795;DHT22;15176;50.844;4.412;2022-08-21T07:36:58;23.20;99.90
27795;DHT22;15176;50.844;4.412;2022-08-21T07:39:24;23.10;99.90
27795;DHT22;15176;50.844;4.412;2022-08-21T07:41:50;23.30;99.90
27795;DHT22;15176;50.844;4.412;2022-08-21T07:44:16;23.60;99.90
27795;DHT22;15176;50.844;4.412;2022-08-21T07:46:42;23.80;99.90
27795;DHT22;15176;50.844;4.412;2022-08-21T07:49:08;24.10;99.90
27795;DHT22;15176;50.844;4.412;2022-08-21T07:51:33;24.20;99.90
27795;DHT22;15176;50.844;4.412;2022-08-21T07:54:00;24.30;99.90
27795;DHT22;15176;50.844;4.412;2022-08-21T07:56:27;24.60;99.90
27795;DHT22;15176;50.844;4.412;2022-08-21T07:58:53;24.50;99.90
27795;DHT22;15176;50.844;4.412;2022-08-21T08:01:19;24.70;99.90
27795;DHT22;15176;50.844;4.412;2022-08-21T08:03:45;24.60;99.90
27795;DHT22;15176;50.844;4.412;2022-08-21T08:06:11;24.60;99.90
27795;DHT22;15176;50.844;4.412;2022-08-21T08:08:41;24.60;99.90
27795;DHT22;15176;50.844;4.412;2022-08-21T08:11:09;24.90;99.90
27795;DHT22;15176;50.844;4.412;2022-08-21T08:13:45;24.70;99.90
27795;DHT22;15176;50.844;4.412;2022-08-21T08:16:12;24.60;99.90
27795;DHT22;15176;50.844;4.412;2022-08-21T08:18:37;25.00;99.90
27795;DHT22;15176;50.844;4.412;2022-08-21T08:21:03;25.10;99.90
27795;DHT22;15176;50.844;4.412;2022-08-21T08:23:31;25.10;99.80
27795;DHT22;15176;50.844;4.412;2022-08-21T08:25:57;25.00;99.90
27795;DHT22;15176;50.844;4.412;2022-08-21T08:28:24;25.20;99.50
27795;DHT22;15176;50.844;4.412;2022-08-21T08:30:50;25.20;99.50
27795;DHT22;15176;50.844;4.412;2022-08-21T08:33:16;25.30;99.00
27795;DHT22;15176;50.844;4.412;2022-08-21T08:35:45;25.10;99.10
27795;DHT22;15176;50.844;4.412;2022-08-21T08:38:11;24.80;99.90
27795;DHT22;15176;50.844;4.412;2022-08-21T08:43:26;25.20;99.30
27795;DHT22;15176;50.844;4.412;2022-08-21T08:45:53;25.70;98.50
27795;DHT22;15176;50.844;4.412;2022-08-21T08:51:14;26.40;97.00
27795;DHT22;15176;50.844;4.412;2022-08-21T08:54:09;26.20;96.60
27795;DHT22;15176;50.844;4.412;2022-08-21T08:56:36;26.70;95.70
27795;DHT22;15176;50.844;4.412;2022-08-21T08:59:23;26.80;95.10
27795;DHT22;15176;50.844;4.412;2022-08-21T09:01:50;26.80;95.50
27795;DHT22;15176;50.844;4.412;2022-08-21T09:04:24;26.80;94.90
27795;DHT22;15176;50.844;4.412;2022-08-21T09:20:39;27.80;91.50
27795;DHT22;15176;50.844;4.412;2022-08-21T09:26:18;28.30;87.50
27795;DHT22;15176;50.844;4.412;2022-08-21T09:28:44;28.70;84.50
27795;DHT22;15176;50.844;4.412;2022-08-21T09:31:27;28.60;84.30
27795;DHT22;15176;50.844;4.412;2022-08-21T09:34:05;28.60;85.50
27795;DHT22;15176;50.844;4.412;2022-08-21T09:36:47;28.70;82.60
27795;DHT22;15176;50.844;4.412;2022-08-21T09:39:27;28.70;83.70
27795;DHT22;15176;50.844;4.412;2022-08-21T09:42:02;28.90;82.00
27795;DHT22;15176;50.844;4.412;2022-08-21T09:44:34;28.80;80.90
27795;DHT22;15176;50.844;4.412;2022-08-21T09:47:04;28.70;81.50
27795;DHT22;15176;50.844;4.412;2022-08-21T09:49:33;28.60;79.70
27795;DHT22;15176;50.844;4.412;2022-08-21T09:51:59;28.10;81.80
27795;DHT22;15176;50.844;4.412;2022-08-21T09:54:34;27.80;82.20
27795;DHT22;15176;50.844;4.412;2022-08-21T09:57:14;27.90;82.40
27795;DHT22;15176;50.844;4.412;2022-08-21T10:00:28;27.80;82.10
27795;DHT22;15176;50.844;4.412;2022-08-21T10:03:08;27.50;83.20
27795;DHT22;15176;50.844;4.412;2022-08-21T10:05:33;27.20;84.20
27795;DHT22;15176;50.844;4.412;2022-08-21T10:08:00;27.10;84.00
27795;DHT22;15176;50.844;4.412;2022-08-21T10:10:29;26.90;84.50
27795;DHT22;15176;50.844;4.412;2022-08-21T10:13:12;26.90;85.10
27795;DHT22;15176;50.844;4.412;2022-08-21T10:24:32;27.80;84.30
27795;DHT22;15176;50.844;4.412;2022-08-21T10:29:56;28.30;82.50
27795;DHT22;15176;50.844;4.412;2022-08-21T10:37:52;29.00;80.60
27795;DHT22;15176;50.844;4.412;2022-08-21T10:41:02;28.80;80.00
27795;DHT22;15176;50.844;4.412;2022-08-21T10:54:51;29.00;78.50
27795;DHT22;15176;50.844;4.412;2022-08-21T10:57:57;29.20;76.80
27795;DHT22;15176;50.844;4.412;2022-08-21T11:00:33;29.80;76.80
27795;DHT22;15176;50.844;4.412;2022-08-21T11:06:21;28.90;77.60
27795;DHT22;15176;50.844;4.412;2022-08-21T11:08:54;28.20;79.10
27795;DHT22;15176;50.844;4.412;2022-08-21T11:12:16;28.10;79.50
27795;DHT22;15176;50.844;4.412;2022-08-21T11:17:30;28.40;78.50
27795;DHT22;15176;50.844;4.412;2022-08-21T11:20:12;28.80;77.40
27795;DHT22;15176;50.844;4.412;2022-08-21T11:22:48;28.50;76.20
27795;DHT22;15176;50.844;4.412;2022-08-21T11:25:40;28.20;77.30
27795;DHT22;15176;50.844;4.412;2022-08-21T11:28:12;28.30;77.20
27795;DHT22;15176;50.844;4.412;2022-08-21T11:33:56;28.50;77.60
27795;DHT22;15176;50.844;4.412;2022-08-21T11:41:46;27.70;79.70
27795;DHT22;15176;50.844;4.412;2022-08-21T11:50:06;27.80;78.30
27795;DHT22;15176;50.844;4.412;2022-08-21T11:55:25;27.70;79.20
27795;DHT22;15176;50.844;4.412;2022-08-21T12:00:43;28.20;78.10
27795;DHT22;15176;50.844;4.412;2022-08-21T12:03:15;28.30;76.70
27795;DHT22;15176;50.844;4.412;2022-08-21T12:06:02;28.60;77.60
27795;DHT22;15176;50.844;4.412;2022-08-21T12:08:44;28.70;76.90
27795;DHT22;15176;50.844;4.412;2022-08-21T12:11:23;28.40;76.00
27795;DHT22;15176;50.844;4.412;2022-08-21T12:14:35;28.70;77.10
27795;DHT22;15176;50.844;4.412;2022-08-21T12:16:48;29.00;75.40
27795;DHT22;15176;50.844;4.412;2022-08-21T12:26:57;29.20;70.00
27795;DHT22;15176;50.844;4.412;2022-08-21T12:29:29;28.80;69.90
27795;DHT22;15176;50.844;4.412;2022-08-21T12:32:02;28.90;69.80
27795;DHT22;15176;50.844;4.412;2022-08-21T12:34:58;29.20;68.70
27795;DHT22;15176;50.844;4.412;2022-08-21T12:39:55;29.40;69.70
27795;DHT22;15176;50.844;4.412;2022-08-21T12:42:31;29.50;69.90
27795;DHT22;15176;50.844;4.412;2022-08-21T12:45:04;29.60;68.00
27795;DHT22;15176;50.844;4.412;2022-08-21T12:47:45;29.70;68.20
27795;DHT22;15176;50.844;4.412;2022-08-21T12:50:48;29.70;66.10
27795;DHT22;15176;50.844;4.412;2022-08-21T12:54:06;29.60;66.40
27795;DHT22;15176;50.844;4.412;2022-08-21T12:56:28;29.60;67.40
27795;DHT22;15176;50.844;4.412;2022-08-21T12:58:57;29.50;66.70
27795;DHT22;15176;50.844;4.412;2022-08-21T13:01:31;29.30;67.00
27795;DHT22;15176;50.844;4.412;2022-08-21T13:04:02;28.90;67.40
27795;DHT22;15176;50.844;4.412;2022-08-21T13:06:36;28.60;69.00
27795;DHT22;15176;50.844;4.412;2022-08-21T13:09:06;28.80;68.50
27795;DHT22;15176;50.844;4.412;2022-08-21T13:11:33;28.70;67.40
27795;DHT22;15176;50.844;4.412;2022-08-21T13:14:00;28.70;68.90
27795;DHT22;15176;50.844;4.412;2022-08-21T13:16:28;28.60;69.20
27795;DHT22;15176;50.844;4.412;2022-08-21T13:19:06;28.30;69.50
27795;DHT22;15176;50.844;4.412;2022-08-21T13:21:39;28.40;69.00
27795;DHT22;15176;50.844;4.412;2022-08-21T13:24:19;28.50;69.20
27795;DHT22;15176;50.844;4.412;2022-08-21T13:26:47;28.50;69.00
27795;DHT22;15176;50.844;4.412;2022-08-21T13:29:16;28.30;68.70
27795;DHT22;15176;50.844;4.412;2022-08-21T13:31:48;28.30;68.20
27795;DHT22;15176;50.844;4.412;2022-08-21T13:34:14;28.10;68.80
27795;DHT22;15176;50.844;4.412;2022-08-21T13:36:41;27.90;70.80
27795;DHT22;15176;50.844;4.412;2022-08-21T13:39:15;27.80;72.30
27795;DHT22;15176;50.844;4.412;2022-08-21T13:41:44;28.00;71.90
27795;DHT22;15176;50.844;4.412;2022-08-21T13:44:30;28.20;72.10
27795;DHT22;15176;50.844;4.412;2022-08-21T13:46:59;28.10;72.20
27795;DHT22;15176;50.844;4.412;2022-08-21T13:49:39;28.10;70.90
27795;DHT22;15176;50.844;4.412;2022-08-21T13:52:14;27.90;70.60
27795;DHT22;15176;50.844;4.412;2022-08-21T13:54:41;27.90;71.30
27795;DHT22;15176;50.844;4.412;2022-08-21T13:57:36;28.20;70.70
27795;DHT22;15176;50.844;4.412;2022-08-21T14:00:25;28.60;69.70
27795;DHT22;15176;50.844;4.412;2022-08-21T14:02:53;28.40;69.10
27795;DHT22;15176;50.844;4.412;2022-08-21T14:05:26;28.20;69.30
27795;DHT22;15176;50.844;4.412;2022-08-21T14:08:05;28.20;70.60
27795;DHT22;15176;50.844;4.412;2022-08-21T14:10:45;27.80;70.60
27795;DHT22;15176;50.844;4.412;2022-08-21T14:16:22;27.70;71.50
27795;DHT22;15176;50.844;4.412;2022-08-21T14:19:12;28.00;71.30
27795;DHT22;15176;50.844;4.412;2022-08-21T14:21:43;27.60;71.80
27795;DHT22;15176;50.844;4.412;2022-08-21T14:24:13;27.60;72.70
27795;DHT22;15176;50.844;4.412;2022-08-21T14:27:06;27.20;73.70
27795;DHT22;15176;50.844;4.412;2022-08-21T14:29:41;27.00;74.50
27795;DHT22;15176;50.844;4.412;2022-08-21T14:32:19;27.00;74.10
27795;DHT22;15176;50.844;4.412;2022-08-21T14:34:45;26.90;74.80
27795;DHT22;15176;50.844;4.412;2022-08-21T14:37:11;26.90;74.30
27795;DHT22;15176;50.844;4.412;2022-08-21T14:39:36;27.00;74.20
27795;DHT22;15176;50.844;4.412;2022-08-21T14:42:03;27.30;74.10
27795;DHT22;15176;50.844;4.412;2022-08-21T14:44:29;27.20;74.80
27795;DHT22;15176;50.844;4.412;2022-08-21T14:46:55;27.10;75.60
27795;DHT22;15176;50.844;4.412;2022-08-21T14:49:22;27.60;74.20
27795;DHT22;15176;50.844;4.412;2022-08-21T14:51:48;28.00;72.60
27795;DHT22;15176;50.844;4.412;2022-08-21T14:54:18;27.60;74.70
27795;DHT22;15176;50.844;4.412;2022-08-21T14:56:44;27.60;74.30
27795;DHT22;15176;50.844;4.412;2022-08-21T14:59:10;27.30;74.40
27795;DHT22;15176;50.844;4.412;2022-08-21T15:01:37;27.50;75.00
27795;DHT22;15176;50.844;4.412;2022-08-21T15:04:03;27.00;76.00
27795;DHT22;15176;50.844;4.412;2022-08-21T15:06:28;26.80;76.30
27795;DHT22;15176;50.844;4.412;2022-08-21T15:08:54;27.20;75.30
27795;DHT22;15176;50.844;4.412;2022-08-21T15:11:22;27.30;74.90
27795;DHT22;15176;50.844;4.412;2022-08-21T15:13:56;27.30;74.00
27795;DHT22;15176;50.844;4.412;2022-08-21T15:16:23;27.50;74.20
27795;DHT22;15176;50.844;4.412;2022-08-21T15:18:49;27.60;74.70
27795;DHT22;15176;50.844;4.412;2022-08-21T15:21:15;27.40;73.30
27795;DHT22;15176;50.844;4.412;2022-08-21T15:23:40;27.20;74.40
27795;DHT22;15176;50.844;4.412;2022-08-21T15:26:06;26.80;75.10
27795;DHT22;15176;50.844;4.412;2022-08-21T15:28:34;26.70;75.70
27795;DHT22;15176;50.844;4.412;2022-08-21T15:31:00;27.00;74.60
27795;DHT22;15176;50.844;4.412;2022-08-21T15:33:26;27.20;74.10
27795;DHT22;15176;50.844;4.412;2022-08-21T15:35:52;26.90;73.80
27795;DHT22;15176;50.844;4.412;2022-08-21T15:38:18;27.00;76.60
27795;DHT22;15176;50.844;4.412;2022-08-21T15:40:44;27.20;75.40
27795;DHT22;15176;50.844;4.412;2022-08-21T15:43:24;27.50;72.20
27795;DHT22;15176;50.844;4.412;2022-08-21T15:45:51;27.40;72.60
27795;DHT22;15176;50.844;4.412;2022-08-21T15:48:17;27.70;72.40
27795;DHT22;15176;50.844;4.412;2022-08-21T15:50:43;27.20;73.30
27795;DHT22;15176;50.844;4.412;2022-08-21T15:53:08;27.00;75.30
27795;DHT22;15176;50.844;4.412;2022-08-21T15:55:34;27.20;73.80
27795;DHT22;15176;50.844;4.412;2022-08-21T15:58:00;26.80;75.00
27795;DHT22;15176;50.844;4.412;2022-08-21T16:00:26;26.60;76.40
27795;DHT22;15176;50.844;4.412;2022-08-21T16:02:56;26.50;75.70
27795;DHT22;15176;50.844;4.412;2022-08-21T16:05:22;26.50;76.60
27795;DHT22;15176;50.844;4.412;2022-08-21T16:07:49;26.50;77.20
27795;DHT22;15176;50.844;4.412;2022-08-21T16:10:17;26.50;77.10
27795;DHT22;15176;50.844;4.412;2022-08-21T16:12:50;26.30;77.40
27795;DHT22;15176;50.844;4.412;2022-08-21T16:15:19;26.30;77.50
27795;DHT22;15176;50.844;4.412;2022-08-21T16:17:46;26.70;76.30
27795;DHT22;15176;50.844;4.412;2022-08-21T16:20:27;26.60;76.10
27795;DHT22;15176;50.844;4.412;2022-08-21T16:22:54;26.60;74.20
27795;DHT22;15176;50.844;4.412;2022-08-21T16:25:22;26.50;76.70
27795;DHT22;15176;50.844;4.412;2022-08-21T16:28:00;26.60;73.90
27795;DHT22;15176;50.844;4.412;2022-08-21T16:30:27;26.90;73.70
27795;DHT22;15176;50.844;4.412;2022-08-21T16:32:53;27.10;74.10
27795;DHT22;15176;50.844;4.412;2022-08-21T16:35:20;27.30;73.90
27795;DHT22;15176;50.844;4.412;2022-08-21T16:37:46;27.30;73.40
27795;DHT22;15176;50.844;4.412;2022-08-21T16:40:13;27.10;73.50
27795;DHT22;15176;50.844;4.412;2022-08-21T16:42:40;26.70;74.70
27795;DHT22;15176;50.844;4.412;2022-08-21T16:45:10;26.70;75.30
27795;DHT22;15176;50.844;4.412;2022-08-21T16:47:36;26.70;76.10
27795;DHT22;15176;50.844;4.412;2022-08-21T16:50:03;26.60;76.60
27795;DHT22;15176;50.844;4.412;2022-08-21T16:52:30;26.30;77.60
27795;DHT22;15176;50.844;4.412;2022-08-21T16:54:56;26.10;77.90
27795;DHT22;15176;50.844;4.412;2022-08-21T16:57:23;26.00;79.40
27795;DHT22;15176;50.844;4.412;2022-08-21T16:59:49;26.10;79.10
27795;DHT22;15176;50.844;4.412;2022-08-21T17:02:43;26.40;78.20
27795;DHT22;15176;50.844;4.412;2022-08-21T17:05:09;26.50;77.50
27795;DHT22;15176;50.844;4.412;2022-08-21T17:07:37;26.10;77.20
27795;DHT22;15176;50.844;4.412;2022-08-21T17:10:07;26.20;77.90
27795;DHT22;15176;50.844;4.412;2022-08-21T17:12:33;26.30;76.60
27795;DHT22;15176;50.844;4.412;2022-08-21T17:15:07;26.30;77.30